Weather reports worldwide

Advertisment
Monte Scuro, Italy (16344): temperature & dewpoint: 15.02.2019 22:00:00 - 21.02.2019 22:00:00 (CET)Monte Scuro, Italy (16344): wind speed: 15.02.2019 22:00:00 - 21.02.2019 22:00:00 (CET)Monte Scuro, Italy (16344): wind direction: 15.02.2019 22:00:00 - 21.02.2019 22:00:00 (CET)Monte Scuro, Italy (16344): visibility: 15.02.2019 22:00:00 - 21.02.2019 22:00:00 (CET)Monte Scuro, Italy (16344): sunshine duration: 15.02.2019 22:00:00 - 21.02.2019 22:00:00 (CET)
Date & Time tt [°C] td [°C] ff [km/h] ff [kn] dd vv [km] sd [min]
21.02.2019 22:00:00 - - - - - - -
21.02.2019 21:00:00 3,4 1,4 9 5 W 15 -
21.02.2019 20:00:00 3,4 1,4 11 6 W 20 -
21.02.2019 19:00:00 3,4 1,1 16 9 W 15 -
21.02.2019 18:00:00 3,4 3,3 11 6 W 20 42
21.02.2019 17:00:00 5,0 5,0 9 5 W 20 60
21.02.2019 16:00:00 6,0 5,3 8 4 WSW 20 60
21.02.2019 15:00:00 6,0 4,2 11 6 SW 25 60
21.02.2019 14:00:00 6,6 5,2 11 6 SW 25 60
21.02.2019 13:00:00 6,4 4,4 9 5 WSW 30 60
21.02.2019 12:00:00 7,0 2,3 0 0 N 30 60
21.02.2019 11:00:00 8,0 -17,1 0 0 N 30 60
21.02.2019 10:00:00 8,2 -18,6 0 0 N 25 60
21.02.2019 09:00:00 7,0 -19,6 5 3 W 25 60
21.02.2019 08:00:00 4,4 -17,2 0 0 N 25 60
21.02.2019 07:00:00 4,0 -17,0 0 0 N 20 -
21.02.2019 06:00:00 4,2 -21,8 0 0 N 10 -
21.02.2019 05:00:00 4,2 -20,1 9 5 W 10 -
21.02.2019 04:00:00 5,0 -23,1 9 5 W 10 -
21.02.2019 03:00:00 5,0 -16,1 8 4 W 10 -
21.02.2019 02:00:00 5,0 -24,1 8 4 W 10 -
21.02.2019 01:00:00 5,0 -24,1 9 5 W 10 -
21.02.2019 00:00:00 4,8 -19,7 11 6 W 10 -
20.02.2019 23:00:00 4,2 -15,1 11 6 W 10 -
20.02.2019 22:00:00 4,0 -3,1 9 5 W 10 -
20.02.2019 21:00:00 3,0 3,0 11 6 W 10 -
20.02.2019 20:00:00 4,0 4,0 9 5 W 10 -
20.02.2019 19:00:00 4,0 4,0 9 5 W 10 -
20.02.2019 18:00:00 4,8 4,7 9 5 W 15 0
20.02.2019 17:00:00 5,0 3,5 9 5 W 25 60
20.02.2019 16:00:00 7,8 4,6 9 5 W 25 60
20.02.2019 15:00:00 7,0 2,9 11 6 WNW 25 60
20.02.2019 14:00:00 8,0 3,5 9 5 WNW 25 60
20.02.2019 13:00:00 8,0 -30,0 0 0 N 25 -
20.02.2019 12:00:00 8,0 -3,2 0 0 N 25 60
20.02.2019 11:00:00 8,0 -13,6 8 4 W 25 60
20.02.2019 10:00:00 8,0 -12,4 8 4 ENE 25 60
20.02.2019 09:00:00 7,0 -12,2 11 6 NNE 25 60
20.02.2019 08:00:00 5,0 -18,0 5 3 NNW 20 60
20.02.2019 07:00:00 4,2 -21,0 5 3 NNW 20 0
20.02.2019 06:00:00 4,0 -19,6 9 5 NE 20 -
20.02.2019 05:00:00 4,2 -20,2 8 4 ENE 20 -
20.02.2019 04:00:00 4,4 -20,8 0 0 N 20 -
20.02.2019 03:00:00 4,8 -24,3 11 6 NE 20 -
20.02.2019 02:00:00 5,0 -24,1 5 3 ENE 20 -
20.02.2019 01:00:00 5,0 -22,1 0 0 N 20 -
20.02.2019 00:00:00 5,0 -19,5 11 6 ENE 20 -
19.02.2019 23:00:00 5,0 -22,1 9 5 ENE 20 -
19.02.2019 22:00:00 5,2 -20,2 8 4 W 20 -
19.02.2019 21:00:00 5,0 -18,0 8 4 WSW 20 -
19.02.2019 20:00:00 5,0 -18,8 4 2 WSW 20 -
19.02.2019 19:00:00 5,0 -17,4 13 7 W 20 -
19.02.2019 18:00:00 5,0 -30,0 11 6 W 20 0
19.02.2019 17:00:00 6,4 -2,0 11 6 W 20 60
19.02.2019 16:00:00 6,8 4,1 5 3 W 20 60
19.02.2019 15:00:00 7,0 3,6 0 0 N 25 60
19.02.2019 14:00:00 7,2 1,5 0 0 N 30 60
19.02.2019 13:00:00 7,6 -2,2 4 2 W 30 60
19.02.2019 12:00:00 7,8 -7,9 5 3 W 30 60
19.02.2019 11:00:00 7,8 -22,0 4 2 W 30 60
19.02.2019 10:00:00 7,6 -22,1 5 3 WNW 30 60
19.02.2019 09:00:00 6,6 -22,9 5 3 W 30 60
19.02.2019 08:00:00 5,0 -24,1 5 3 W 25 60
19.02.2019 07:00:00 4,4 -24,6 0 0 N 20 0
19.02.2019 06:00:00 4,2 -24,8 0 0 N 15 -
19.02.2019 05:00:00 4,6 -24,5 0 0 N 15 -
19.02.2019 04:00:00 4,8 -17,5 0 0 N 15 -
19.02.2019 03:00:00 5,0 -17,4 4 2 SE 15 -
19.02.2019 02:00:00 5,0 -19,5 4 2 SE 15 -
19.02.2019 01:00:00 5,0 -13,4 5 3 SE 15 -
19.02.2019 00:00:00 5,0 -2,6 4 2 ESE 15 -
18.02.2019 23:00:00 5,2 -4,9 4 2 ESE 15 -
18.02.2019 22:00:00 5,2 -4,6 5 3 ESE 15 -
18.02.2019 21:00:00 6,0 -1,9 4 2 ESE 15 -
18.02.2019 20:00:00 6,0 -2,1 5 3 ESE 15 -
18.02.2019 19:00:00 5,4 1,9 5 3 E 15 -
18.02.2019 18:00:00 5,8 3,3 5 3 E 20 24
18.02.2019 17:00:00 6,4 3,2 0 0 N 30 60
18.02.2019 16:00:00 7,2 3,4 0 0 N 30 60
18.02.2019 15:00:00 7,4 1,3 4 2 W 30 60
18.02.2019 14:00:00 7,8 0,5 4 2 W 30 60
18.02.2019 13:00:00 7,8 -1,4 5 3 W 30 60
18.02.2019 12:00:00 8,4 -15,3 5 3 W 30 60
18.02.2019 11:00:00 8,0 -21,8 0 0 N 30 60
18.02.2019 10:00:00 8,2 -21,6 0 0 N 25 60
18.02.2019 09:00:00 7,2 -22,4 4 2 NE 25 60
18.02.2019 08:00:00 6,2 -23,2 0 0 N 25 60
18.02.2019 07:00:00 5,6 -23,7 0 0 N 20 -
18.02.2019 06:00:00 5,4 -23,8 4 2 ENE 10 -
18.02.2019 05:00:00 4,8 -24,3 4 2 NE 10 -
18.02.2019 04:00:00 4,0 -24,9 5 3 ENE 10 -
18.02.2019 03:00:00 4,0 -24,9 5 3 ENE 10 -
18.02.2019 02:00:00 4,0 -24,9 9 5 ENE 10 -
18.02.2019 01:00:00 3,8 -25,1 9 5 ENE 10 -
18.02.2019 00:00:00 3,6 -12,0 9 5 NE 10 -
17.02.2019 23:00:00 3,8 -11,0 11 6 NE 10 -
17.02.2019 22:00:00 3,8 -11,4 9 5 NNE 10 -
17.02.2019 21:00:00 3,8 -11,0 11 6 NNE 10 -
17.02.2019 20:00:00 3,8 -13,0 11 6 NNE 10 -
17.02.2019 19:00:00 3,8 -14,9 11 6 NNE 10 -
17.02.2019 18:00:00 3,4 -9,2 11 6 NNE 15 30
17.02.2019 17:00:00 4,0 -14,3 11 6 NNE 15 60
17.02.2019 16:00:00 4,8 -17,5 5 3 NNE 20 60
17.02.2019 15:00:00 5,4 -9,6 4 2 NNE 20 60
17.02.2019 14:00:00 5,4 -8,1 0 0 N 20 60
17.02.2019 13:00:00 5,2 -13,7 5 3 NNE 25 60
17.02.2019 12:00:00 4,8 -18,2 9 5 NNE 25 60
17.02.2019 11:00:00 4,0 -18,9 15 8 NNE 25 60
17.02.2019 10:00:00 3,6 -15,6 22 12 WNW 30 60
17.02.2019 09:00:00 2,0 -9,9 22 12 NNW 25 60
17.02.2019 08:00:00 0,2 -10,9 18 10 WNW 20 24
17.02.2019 07:00:00 -0,2 -10,7 0 0 N 20 -
17.02.2019 06:00:00 -0,4 -6,2 4 2 WNW 10 -
17.02.2019 05:00:00 -1,2 -3,4 18 10 WNW - -
17.02.2019 04:00:00 -1,6 -3,0 28 15 WNW 10 -
17.02.2019 03:00:00 -2,0 -3,3 28 15 WNW 10 -
17.02.2019 02:00:00 -3,0 -4,4 37 20 WNW 10 -
17.02.2019 01:00:00 -2,8 -4,1 37 20 W 10 -
17.02.2019 00:00:00 -2,4 -3,8 46 25 WNW 10 -
16.02.2019 23:00:00 -2,0 -3,3 37 20 WNW 10 -
16.02.2019 22:00:00 -1,8 -3,1 37 20 NNE 10 -
16.02.2019 21:00:00 -1,2 -1,8 46 25 WNW - -
16.02.2019 20:00:00 -1,4 -2,1 46 25 WNW - -
16.02.2019 19:00:00 -1,8 -2,5 37 20 WNW - -
16.02.2019 18:00:00 -2,0 -3,3 46 25 WNW 10 -
16.02.2019 17:00:00 -2,0 -3,3 37 20 W 10 6
16.02.2019 16:00:00 -2,0 -3,3 41 22 NNE 10 -
16.02.2019 15:00:00 -1,8 -3,2 37 20 NNW - 0
16.02.2019 14:00:00 -1,8 -3,2 37 20 NNE - 0
16.02.2019 13:00:00 -2,0 -2,7 37 20 NNW - 0
16.02.2019 12:00:00 -2,4 -3,1 37 20 NNW - 0
16.02.2019 11:00:00 -2,8 -3,5 46 25 NNW - -
16.02.2019 10:00:00 -3,0 -4,4 37 20 NNW - 0
16.02.2019 09:00:00 -3,0 -4,4 50 27 NNW - 0
16.02.2019 08:00:00 -3,0 -4,4 52 28 NNW 15 0
16.02.2019 07:00:00 -3,0 -4,4 41 22 NW - -
16.02.2019 06:00:00 -3,0 -4,4 41 22 N - -
16.02.2019 05:00:00 -3,0 -30,0 46 25 N - -
16.02.2019 04:00:00 -3,0 -4,4 37 20 N - -
16.02.2019 03:00:00 -3,0 -4,4 46 25 WNW - -
16.02.2019 02:00:00 - - - - - - -
16.02.2019 01:00:00 -3,0 -30,0 37 20 NNW - -
16.02.2019 00:00:00 - - - - - - -
15.02.2019 23:00:00 -3,0 -4,3 28 15 NNW - -
15.02.2019 22:00:00 -3,0 -4,3 31 17 NNW - -

tt = temperature
td = dewpoint
ff = wind speed
dd = wind direction
vv = visibility
sd = sunshine duration

Next stations